Time;durP1;ratioP1;P1;durP2;ratioP2;P2;SDS_P1;SDS_P2;PMS_P1;PMS_P2;Temp;Humidity;BMP_temperature;BMP_pressure;BME280_temperature;BME280_humidity;BME280_pressure;Samples;Min_cycle;Max_cycle;Signal;HPM_P1;HPM_P2
2021/06/23 00:01:01;;;;;;;2.47;1.90;;;16.00;99.90;;;;;;5095408;28;20211;-78
2021/06/23 00:03:26;;;;;;;2.63;2.30;;;16.00;99.90;;;;;;5096706;28;20192;-78
2021/06/23 00:05:52;;;;;;;2.00;1.80;;;15.90;99.90;;;;;;5095268;28;20642;-78
2021/06/23 00:08:18;;;;;;;3.00;2.13;;;15.90;99.90;;;;;;5096923;28;20187;-78
2021/06/23 00:10:44;;;;;;;2.03;1.83;;;15.90;99.90;;;;;;5096350;28;20620;-78
2021/06/23 00:13:09;;;;;;;4.73;2.27;;;15.90;99.90;;;;;;5095253;28;20184;-78
2021/06/23 00:15:36;;;;;;;2.43;2.23;;;15.90;99.90;;;;;;5096576;28;20179;-78
2021/06/23 00:18:03;;;;;;;2.80;2.50;;;15.90;99.90;;;;;;5094564;28;20677;-78
2021/06/23 00:20:29;;;;;;;5.63;2.23;;;15.80;99.90;;;;;;5095957;28;20669;-79
2021/06/23 00:22:55;;;;;;;2.77;2.30;;;15.80;99.90;;;;;;5097069;28;20179;-78
2021/06/23 00:25:21;;;;;;;2.57;1.83;;;15.80;99.90;;;;;;5096510;28;20656;-79
2021/06/23 00:27:46;;;;;;;2.07;1.87;;;15.80;99.90;;;;;;5094398;28;20212;-78
2021/06/23 00:30:13;;;;;;;1.90;1.77;;;15.80;99.90;;;;;;5095524;28;20181;-78
2021/06/23 00:32:43;;;;;;;3.70;2.10;;;15.80;99.90;;;;;;5096140;28;20540;-78
2021/06/23 00:35:09;;;;;;;7.13;2.33;;;15.80;99.90;;;;;;5096470;28;20171;-78
2021/06/23 00:37:35;;;;;;;3.60;2.73;;;15.80;99.90;;;;;;5095193;28;20196;-78
2021/06/23 00:40:01;;;;;;;3.23;2.07;;;15.80;99.90;;;;;;5096504;28;20282;-78
2021/06/23 00:42:27;;;;;;;3.47;2.47;;;15.80;99.90;;;;;;5096663;28;20213;-78
2021/06/23 00:44:53;;;;;;;3.33;2.47;;;15.80;99.90;;;;;;5096918;28;20176;-79
2021/06/23 00:47:19;;;;;;;3.63;2.70;;;15.90;99.90;;;;;;5095256;28;20245;-79
2021/06/23 00:49:45;;;;;;;4.80;2.93;;;15.90;99.90;;;;;;5096885;28;20294;-78
2021/06/23 00:52:11;;;;;;;3.27;2.87;;;16.00;99.90;;;;;;5096751;28;20188;-80
2021/06/23 00:54:37;;;;;;;4.43;3.17;;;16.00;99.90;;;;;;5095723;28;20188;-78
2021/06/23 00:57:06;;;;;;;3.20;2.90;;;16.00;99.90;;;;;;5094023;28;20661;-78
2021/06/23 00:59:34;;;;;;;4.53;2.80;;;16.00;99.90;;;;;;5093129;28;20238;-78
2021/06/23 01:02:02;;;;;;;8.00;2.90;;;16.00;99.90;;;;;;5093077;28;20172;-78
2021/06/23 01:04:27;;;;;;;3.43;2.70;;;16.00;99.90;;;;;;5092372;28;20176;-78
2021/06/23 01:06:54;;;;;;;3.67;3.37;;;16.00;99.90;;;;;;5097217;28;20192;-78
2021/06/23 01:09:21;;;;;;;3.83;3.43;;;16.10;99.90;;;;;;5096029;28;20184;-78
2021/06/23 01:12:26;;;;;;;4.17;3.20;;;16.10;99.90;;;;;;5097204;28;20180;-78
2021/06/23 01:14:59;;;;;;;4.47;3.90;;;16.10;99.90;;;;;;5096947;28;20247;-78
2021/06/23 01:17:29;;;;;;;4.87;3.80;;;16.20;99.90;;;;;;5095650;28;20204;-78
2021/06/23 01:20:06;;;;;;;6.13;4.80;;;16.20;99.90;;;;;;5096841;28;20196;-78
2021/06/23 01:22:33;;;;;;;5.60;4.63;;;16.30;99.90;;;;;;5096920;28;20307;-78
2021/06/23 01:24:59;;;;;;;6.63;3.97;;;16.30;99.90;;;;;;5097068;28;20214;-78
2021/06/23 01:27:25;;;;;;;6.20;4.37;;;16.20;99.90;;;;;;5096862;28;20306;-78
2021/06/23 01:29:50;;;;;;;4.27;3.50;;;16.20;99.90;;;;;;5096747;28;20204;-78
2021/06/23 01:32:16;;;;;;;3.47;3.17;;;16.20;99.90;;;;;;5096714;28;20285;-78
2021/06/23 01:34:42;;;;;;;3.27;2.97;;;16.10;99.90;;;;;;5097038;28;20176;-78
2021/06/23 01:37:08;;;;;;;3.67;3.37;;;16.10;99.90;;;;;;5096830;28;20551;-78
2021/06/23 01:39:35;;;;;;;4.40;3.50;;;16.10;99.90;;;;;;5095077;28;20210;-78
2021/06/23 01:42:00;;;;;;;3.77;3.30;;;16.10;99.90;;;;;;5096384;28;20169;-78
2021/06/23 01:44:28;;;;;;;5.87;3.00;;;16.10;99.90;;;;;;5094998;28;20233;-78
2021/06/23 01:46:54;;;;;;;7.23;3.03;;;16.10;99.90;;;;;;5096190;28;20216;-78
2021/06/23 01:49:25;;;;;;;4.40;3.47;;;16.10;99.90;;;;;;5096150;28;20172;-78
2021/06/23 01:51:52;;;;;;;3.87;3.47;;;16.10;99.90;;;;;;5096136;28;20537;-78
2021/06/23 01:54:17;;;;;;;4.37;3.70;;;16.10;99.90;;;;;;5096064;28;20176;-78
2021/06/23 01:56:43;;;;;;;3.97;3.43;;;16.10;99.90;;;;;;5095469;28;20183;-78
2021/06/23 01:59:09;;;;;;;4.27;3.50;;;16.10;99.90;;;;;;5096821;28;20207;-78
2021/06/23 02:01:46;;;;;;;4.40;4.00;;;16.20;99.90;;;;;;5096857;28;20253;-78
2021/06/23 02:04:49;;;;;;;4.80;3.43;;;16.20;99.90;;;;;;5095898;28;20175;-78
2021/06/23 02:07:33;;;;;;;5.43;4.13;;;16.20;99.90;;;;;;5097228;28;20192;-78
2021/06/23 02:10:24;;;;;;;4.73;4.33;;;16.30;99.90;;;;;;5097017;28;20161;-78
2021/06/23 02:13:27;;;;;;;5.67;5.17;;;16.30;99.90;;;;;;5096793;28;20169;-78
2021/06/23 02:15:55;;;;;;;5.67;5.13;;;16.30;99.90;;;;;;5096632;28;20184;-78
2021/06/23 02:18:21;;;;;;;6.27;5.67;;;16.30;99.90;;;;;;5096728;28;20200;-78
2021/06/23 02:20:51;;;;;;;6.70;5.87;;;16.40;99.90;;;;;;5095252;28;20295;-78
2021/06/23 02:23:17;;;;;;;8.90;6.33;;;16.40;99.90;;;;;;5096985;28;20165;-78
2021/06/23 02:25:43;;;;;;;6.27;5.67;;;16.40;99.90;;;;;;5096667;28;20179;-78
2021/06/23 02:28:10;;;;;;;8.80;7.43;;;16.40;99.90;;;;;;5094968;28;20212;-78
2021/06/23 02:30:39;;;;;;;8.97;8.07;;;16.50;99.90;;;;;;5096384;28;20180;-78
2021/06/23 02:33:07;;;;;;;8.93;8.10;;;16.50;99.90;;;;;;5095079;28;20180;-78
2021/06/23 02:35:34;;;;;;;9.77;8.70;;;16.50;99.90;;;;;;5096353;28;20183;-78
2021/06/23 02:38:00;;;;;;;10.03;8.50;;;16.50;99.90;;;;;;5096949;28;20200;-78
2021/06/23 02:40:26;;;;;;;9.10;8.10;;;16.50;99.90;;;;;;5095151;28;20207;-78
2021/06/23 02:42:53;;;;;;;9.50;8.60;;;16.50;99.90;;;;;;5096731;28;20199;-78
2021/06/23 02:45:23;;;;;;;10.03;9.03;;;16.50;99.90;;;;;;5095420;28;20207;-78
2021/06/23 02:47:48;;;;;;;11.63;8.67;;;16.50;99.90;;;;;;5096437;28;20198;-78
2021/06/23 02:50:14;;;;;;;9.13;8.17;;;16.50;99.90;;;;;;5096123;28;20255;-78
2021/06/23 02:52:41;;;;;;;9.63;8.73;;;16.50;99.90;;;;;;5095196;28;20206;-78
2021/06/23 02:55:07;;;;;;;10.30;9.30;;;16.50;99.90;;;;;;5096473;28;20180;-78
2021/06/23 02:57:34;;;;;;;10.43;9.43;;;16.50;99.90;;;;;;5096233;28;20192;-78
2021/06/23 03:00:02;;;;;;;11.60;9.33;;;16.50;99.90;;;;;;5095004;28;20204;-78
2021/06/23 03:02:28;;;;;;;13.97;9.87;;;16.50;99.90;;;;;;5096461;28;20172;-78
2021/06/23 03:04:53;;;;;;;13.17;11.13;;;16.50;99.90;;;;;;5094997;28;20187;-78
2021/06/23 03:07:19;;;;;;;14.03;12.50;;;16.50;99.90;;;;;;5096253;28;20195;-79
2021/06/23 03:09:45;;;;;;;13.73;12.23;;;16.60;99.90;;;;;;5095968;28;20626;-78
2021/06/23 03:12:13;;;;;;;13.67;12.07;;;16.50;99.90;;;;;;5096463;28;20517;-78
2021/06/23 03:14:39;;;;;;;14.23;12.90;;;16.50;99.90;;;;;;5096723;28;20179;-78
2021/06/23 03:17:05;;;;;;;15.43;13.50;;;16.50;99.90;;;;;;5094484;28;20737;-78
2021/06/23 03:19:31;;;;;;;16.07;14.37;;;16.50;99.90;;;;;;5096009;28;20231;-78
2021/06/23 03:22:02;;;;;;;14.80;13.17;;;16.40;99.90;;;;;;5096009;28;20717;-78
2021/06/23 03:24:27;;;;;;;17.33;13.03;;;16.40;99.90;;;;;;5095423;28;20518;-78
2021/06/23 03:26:53;;;;;;;15.17;13.57;;;16.30;99.90;;;;;;5095688;28;20181;-79
2021/06/23 03:29:31;;;;;;;14.30;12.90;;;16.40;99.90;;;;;;5095380;28;20176;-78
2021/06/23 03:31:57;;;;;;;15.83;13.10;;;16.30;99.90;;;;;;5095736;28;20176;-78
2021/06/23 03:34:23;;;;;;;17.80;12.97;;;16.30;99.90;;;;;;5096318;28;20200;-79
2021/06/23 03:36:49;;;;;;;16.70;13.17;;;16.30;99.90;;;;;;5095559;28;20172;-78
2021/06/23 03:39:15;;;;;;;14.17;12.67;;;16.30;99.90;;;;;;5095846;28;20207;-78
2021/06/23 03:41:41;;;;;;;13.97;12.43;;;16.30;99.90;;;;;;5094869;28;20176;-78
2021/06/23 03:44:07;;;;;;;14.47;12.97;;;16.30;99.90;;;;;;5096139;28;20183;-78
2021/06/23 03:46:32;;;;;;;13.93;12.47;;;16.30;99.90;;;;;;5095811;28;20237;-78
2021/06/23 03:48:58;;;;;;;14.03;12.63;;;16.30;99.90;;;;;;5096124;28;20541;-78
2021/06/23 03:51:25;;;;;;;14.27;12.27;;;16.20;99.90;;;;;;5095979;28;20183;-79
2021/06/23 03:53:50;;;;;;;15.07;12.63;;;16.30;99.90;;;;;;5098065;28;20180;-79
2021/06/23 03:56:16;;;;;;;14.13;12.63;;;16.30;99.90;;;;;;5097986;28;20263;-79
2021/06/23 03:58:42;;;;;;;14.90;12.17;;;16.30;99.90;;;;;;5096728;28;20200;-79
2021/06/23 04:01:09;;;;;;;18.70;11.63;;;16.30;99.90;;;;;;5098609;28;20207;-79
2021/06/23 04:03:35;;;;;;;12.50;11.13;;;16.30;99.90;;;;;;5098094;28;20164;-79
2021/06/23 04:06:01;;;;;;;12.03;10.83;;;16.30;99.90;;;;;;5098297;28;20644;-79
2021/06/23 04:08:26;;;;;;;11.60;10.40;;;16.30;99.90;;;;;;5098190;28;20202;-79
2021/06/23 04:10:52;;;;;;;11.60;10.40;;;16.30;99.90;;;;;;5097988;28;20184;-79
2021/06/23 04:13:18;;;;;;;12.40;9.60;;;16.30;99.90;;;;;;5096630;28;20544;-79
2021/06/23 04:15:43;;;;;;;10.43;9.43;;;16.30;99.90;;;;;;5098531;28;20661;-79
2021/06/23 04:18:09;;;;;;;10.13;9.10;;;16.40;99.90;;;;;;5098727;28;20199;-79
2021/06/23 04:20:35;;;;;;;9.67;8.63;;;16.30;99.90;;;;;;5096363;28;20665;-78
2021/06/23 04:23:01;;;;;;;8.90;7.60;;;16.30;99.90;;;;;;5098103;28;20172;-78
2021/06/23 04:25:27;;;;;;;8.97;8.07;;;16.30;99.90;;;;;;5097733;28;20179;-79
2021/06/23 04:27:52;;;;;;;10.13;9.10;;;16.30;99.90;;;;;;5096281;28;20219;-79
2021/06/23 04:30:19;;;;;;;14.67;10.27;;;16.30;99.90;;;;;;5095758;28;20267;-79
2021/06/23 04:32:44;;;;;;;11.50;9.23;;;16.40;99.90;;;;;;5096892;28;20187;-79
2021/06/23 04:35:11;;;;;;;12.00;9.30;;;16.40;99.90;;;;;;5097522;28;20172;-79
2021/06/23 04:37:38;;;;;;;10.30;8.90;;;16.50;99.90;;;;;;5094853;28;20292;-78
2021/06/23 04:40:06;;;;;;;9.03;8.13;;;16.50;99.90;;;;;;5097626;28;20195;-78
2021/06/23 04:42:32;;;;;;;10.07;7.57;;;16.60;99.90;;;;;;5098960;28;20212;-78
2021/06/23 04:44:57;;;;;;;4.77;4.37;;;16.60;99.90;;;;;;5098067;28;20164;-78
2021/06/23 04:47:23;;;;;;;6.13;5.20;;;16.60;99.90;;;;;;5097322;28;20223;-78
2021/06/23 04:49:49;;;;;;;6.60;4.80;;;16.60;99.90;;;;;;5097553;28;20172;-78
2021/06/23 04:52:15;;;;;;;7.23;5.43;;;16.50;99.90;;;;;;5097430;28;20225;-78
2021/06/23 04:54:40;;;;;;;7.33;5.33;;;16.50;99.90;;;;;;5096984;28;20175;-78
2021/06/23 04:57:06;;;;;;;7.90;5.50;;;16.50;99.90;;;;;;5096943;28;20196;-78
2021/06/23 04:59:32;;;;;;;7.23;5.27;;;16.50;99.90;;;;;;5095546;28;20203;-78
2021/06/23 05:01:58;;;;;;;7.53;6.00;;;16.60;99.90;;;;;;5095352;28;20262;-77
2021/06/23 05:04:24;;;;;;;6.37;5.77;;;16.60;99.90;;;;;;5097628;28;20251;-78
2021/06/23 05:06:49;;;;;;;5.07;4.57;;;16.70;99.90;;;;;;5097024;28;20626;-77
2021/06/23 05:09:15;;;;;;;5.63;5.00;;;16.70;99.90;;;;;;5091084;28;20176;-78
2021/06/23 05:11:40;;;;;;;6.67;4.27;;;16.80;99.90;;;;;;5076406;28;20605;-78
2021/06/23 05:14:07;;;;;;;4.97;4.17;;;16.80;99.90;;;;;;5094816;28;20172;-78
2021/06/23 05:16:36;;;;;;;4.93;4.47;;;16.90;99.90;;;;;;5095564;28;20180;-78
2021/06/23 05:19:01;;;;;;;5.80;3.80;;;16.90;99.90;;;;;;5096988;28;20176;-77
2021/06/23 05:21:27;;;;;;;3.97;3.33;;;16.90;99.90;;;;;;5096525;28;20233;-77
2021/06/23 05:23:54;;;;;;;4.33;3.93;;;16.90;99.90;;;;;;5096796;28;20172;-78
2021/06/23 05:26:19;;;;;;;4.77;4.33;;;17.00;99.90;;;;;;5097208;28;20596;-78
2021/06/23 05:28:45;;;;;;;4.87;4.30;;;17.10;99.90;;;;;;5097463;28;20689;-84
2021/06/23 05:31:11;;;;;;;4.77;3.80;;;17.20;99.90;;;;;;5099884;28;20560;-80
2021/06/23 05:33:36;;;;;;;3.27;2.27;;;17.30;99.90;;;;;;5099815;28;20184;-80
2021/06/23 05:36:02;;;;;;;3.20;2.20;;;17.40;99.90;;;;;;5097323;28;20172;-79
2021/06/23 05:38:28;;;;;;;1.97;1.67;;;17.50;99.90;;;;;;5097260;28;20207;-80
2021/06/23 05:40:54;;;;;;;2.40;1.70;;;17.70;99.90;;;;;;5098567;28;20194;-81
2021/06/23 05:43:19;;;;;;;1.63;1.50;;;17.80;99.90;;;;;;5097051;28;20184;-81
2021/06/23 05:45:45;;;;;;;1.60;1.50;;;17.80;99.90;;;;;;5097335;28;20173;-80
2021/06/23 05:48:10;;;;;;;2.40;1.77;;;18.00;99.90;;;;;;5098673;28;20313;-79
2021/06/23 05:50:36;;;;;;;1.57;1.43;;;18.00;99.90;;;;;;5095511;28;20181;-79
2021/06/23 05:53:02;;;;;;;2.40;1.40;;;18.10;99.90;;;;;;5096188;28;20180;-79
2021/06/23 05:55:28;;;;;;;1.80;1.60;;;18.00;99.90;;;;;;5096705;28;20245;-79
2021/06/23 05:57:56;;;;;;;2.17;1.67;;;18.00;99.90;;;;;;5097780;28;20352;-79
2021/06/23 06:00:23;;;;;;;1.80;1.70;;;18.10;99.90;;;;;;5097950;28;20654;-79
2021/06/23 06:02:49;;;;;;;1.93;1.83;;;18.00;99.90;;;;;;5097049;28;20188;-79
2021/06/23 06:05:16;;;;;;;4.03;1.77;;;18.00;99.90;;;;;;5096844;28;20176;-79
2021/06/23 06:07:42;;;;;;;2.93;2.00;;;18.00;99.90;;;;;;5096555;28;20562;-79
2021/06/23 06:10:09;;;;;;;5.90;2.33;;;18.00;99.90;;;;;;5097869;28;20689;-79
2021/06/23 06:12:35;;;;;;;4.10;2.30;;;18.00;99.90;;;;;;5097961;28;20229;-79
2021/06/23 06:15:00;;;;;;;2.80;2.17;;;18.10;99.90;;;;;;5098791;28;20176;-79
2021/06/23 06:17:26;;;;;;;2.17;1.90;;;18.20;99.90;;;;;;5098506;28;20203;-78
2021/06/23 06:19:52;;;;;;;2.27;1.80;;;18.30;99.90;;;;;;5098768;28;20235;-78
2021/06/23 06:22:18;;;;;;;3.50;1.77;;;18.40;99.90;;;;;;5098801;28;20249;-79
2021/06/23 06:24:43;;;;;;;2.23;1.87;;;18.40;99.90;;;;;;5098337;28;20180;-79
2021/06/23 06:27:09;;;;;;;2.33;1.63;;;18.50;99.90;;;;;;5098508;28;20231;-79
2021/06/23 06:29:35;;;;;;;1.57;1.47;;;18.50;99.90;;;;;;5097635;28;20191;-79
2021/06/23 06:32:00;;;;;;;1.40;1.30;;;18.60;99.90;;;;;;5099783;28;20542;-79
2021/06/23 06:34:26;;;;;;;2.20;1.33;;;18.60;99.90;;;;;;5099667;28;20183;-79
2021/06/23 06:36:52;;;;;;;2.43;1.50;;;18.70;99.90;;;;;;5098731;28;20181;-79
2021/06/23 06:39:18;;;;;;;3.00;1.60;;;18.80;99.90;;;;;;5098489;28;20204;-79
2021/06/23 06:41:44;;;;;;;2.00;1.40;;;18.70;99.90;;;;;;5098468;28;20501;-79
2021/06/23 06:44:09;;;;;;;2.90;1.67;;;18.70;99.90;;;;;;5098505;28;20182;-79
2021/06/23 06:46:37;;;;;;;1.60;1.50;;;;;;;;;;5098899;28;20251;-79
2021/06/23 06:49:03;;;;;;;2.10;1.60;;;18.70;99.90;;;;;;5098525;28;20680;-79
2021/06/23 06:51:29;;;;;;;2.13;1.70;;;18.60;99.90;;;;;;5099120;28;20199;-79
2021/06/23 06:53:55;;;;;;;1.70;1.60;;;18.50;99.90;;;;;;5098807;28;20654;-79
2021/06/23 06:56:20;;;;;;;1.70;1.60;;;18.50;99.90;;;;;;5095877;28;20176;-78
2021/06/23 06:58:46;;;;;;;2.20;1.43;;;18.50;99.90;;;;;;5097060;28;20197;-79
2021/06/23 07:01:12;;;;;;;2.07;1.17;;;18.50;99.90;;;;;;5095740;28;20208;-78
2021/06/23 07:03:37;;;;;;;2.33;1.20;;;18.70;99.90;;;;;;5095472;28;20179;-79
2021/06/23 07:06:03;;;;;;;1.00;0.90;;;18.70;99.90;;;;;;5097098;28;20661;-79
2021/06/23 07:08:29;;;;;;;3.43;1.23;;;18.80;99.90;;;;;;5096916;28;20188;-79
2021/06/23 07:10:54;;;;;;;2.23;1.20;;;18.90;99.90;;;;;;5096916;28;20172;-79
2021/06/23 07:13:20;;;;;;;2.10;1.00;;;18.90;99.90;;;;;;5096539;28;20176;-78
2021/06/23 07:15:45;;;;;;;1.90;1.00;;;18.90;99.90;;;;;;5096858;28;20172;-79
2021/06/23 07:18:11;;;;;;;1.60;1.30;;;18.90;99.90;;;;;;5095062;28;20194;-79
2021/06/23 07:20:37;;;;;;;2.47;1.30;;;19.00;99.90;;;;;;5096370;28;20203;-79
2021/06/23 07:23:03;;;;;;;1.50;1.10;;;19.00;99.90;;;;;;5097080;28;20172;-79
2021/06/23 07:25:28;;;;;;;2.07;1.43;;;19.00;99.90;;;;;;5096940;28;20201;-79
2021/06/23 07:27:54;;;;;;;1.37;1.20;;;19.10;99.90;;;;;;5096726;28;20210;-79
2021/06/23 07:30:20;;;;;;;1.80;1.43;;;19.20;99.90;;;;;;5096061;28;20180;-79
2021/06/23 07:37:58;;;;;;;2.37;1.60;;;19.40;99.90;;;;;;5078634;28;20695;-79
2021/06/23 07:40:42;;;;;;;2.67;1.70;;;19.50;99.90;;;;;;5077094;28;20205;-79
2021/06/23 07:43:09;;;;;;;1.27;1.17;;;19.60;99.90;;;;;;5076722;28;20596;-79
2021/06/23 07:45:36;;;;;;;1.60;1.50;;;19.60;99.90;;;;;;5077051;28;20173;-79
2021/06/23 07:48:02;;;;;;;2.17;1.47;;;19.60;99.90;;;;;;5076888;28;20193;-79
2021/06/23 07:50:35;;;;;;;1.40;1.30;;;19.70;99.90;;;;;;5078635;28;20234;-79
2021/06/23 07:56:06;;;;;;;2.00;1.70;;;19.90;99.90;;;;;;5077120;28;20248;-79
2021/06/23 08:09:25;;;;;;;7.60;1.57;;;20.50;99.90;;;;;;5077531;28;20173;-79
2021/06/23 08:11:55;;;;;;;2.00;1.80;;;20.60;99.90;;;;;;5075844;28;20620;-79
2021/06/23 08:14:20;;;;;;;2.53;1.83;;;20.60;99.90;;;;;;5078105;28;20178;-79
2021/06/23 08:16:48;;;;;;;3.77;1.90;;;20.70;99.90;;;;;;5081636;28;20226;-79
2021/06/23 08:19:14;;;;;;;1.90;1.70;;;20.80;99.90;;;;;;5081095;28;20239;-78
2021/06/23 08:21:39;;;;;;;2.47;2.00;;;20.90;99.90;;;;;;5081333;28;20642;-79
2021/06/23 08:24:05;;;;;;;3.63;2.07;;;21.10;99.90;;;;;;5081649;28;20204;-79
2021/06/23 08:26:31;;;;;;;2.80;2.00;;;21.20;99.90;;;;;;5080425;28;20180;-79
2021/06/23 08:28:56;;;;;;;2.20;2.00;;;21.20;99.90;;;;;;5080150;28;20205;-79
2021/06/23 08:31:22;;;;;;;3.90;2.40;;;21.10;99.90;;;;;;5081560;28;20185;-79
2021/06/23 08:33:48;;;;;;;2.43;2.07;;;20.90;99.90;;;;;;5080254;28;20181;-79
2021/06/23 08:36:13;;;;;;;2.93;2.00;;;20.80;99.90;;;;;;5081316;28;20177;-79
2021/06/23 08:38:39;;;;;;;3.80;2.10;;;21.00;99.90;;;;;;5080002;28;20204;-79
2021/06/23 08:41:05;;;;;;;3.30;2.27;;;21.20;99.90;;;;;;5078909;28;20201;-79
2021/06/23 08:43:31;;;;;;;2.80;2.20;;;21.30;99.90;;;;;;5079680;28;20272;-79
2021/06/23 08:45:57;;;;;;;4.93;2.27;;;21.40;99.90;;;;;;5081022;28;20515;-79
2021/06/23 08:48:22;;;;;;;3.33;2.20;;;21.40;99.90;;;;;;5080785;28;20222;-79
2021/06/23 08:50:48;;;;;;;2.40;2.20;;;21.40;99.90;;;;;;5080734;28;20218;-79
2021/06/23 08:53:14;;;;;;;2.87;2.57;;;21.40;99.90;;;;;;5079611;28;20188;-79
2021/06/23 08:55:40;;;;;;;5.10;2.77;;;21.20;99.90;;;;;;5081023;28;20205;-79
2021/06/23 08:58:06;;;;;;;2.50;2.30;;;21.20;99.90;;;;;;5079943;28;20681;-79
2021/06/23 09:00:33;;;;;;;2.60;2.40;;;21.20;99.90;;;;;;5079185;28;20220;-79
2021/06/23 09:03:02;;;;;;;2.97;2.60;;;21.20;99.90;;;;;;5081495;28;20193;-79
2021/06/23 09:05:46;;;;;;;3.30;2.67;;;21.30;99.90;;;;;;5081255;28;20169;-79
2021/06/23 09:08:11;;;;;;;3.07;2.70;;;21.30;99.90;;;;;;5078489;28;20220;-79
2021/06/23 09:10:37;;;;;;;3.67;2.70;;;21.30;99.90;;;;;;5080322;28;20230;-79
2021/06/23 09:13:08;;;;;;;3.67;2.83;;;21.30;99.90;;;;;;5081057;28;20184;-79
2021/06/23 09:15:46;;;;;;;4.03;2.73;;;21.50;99.90;;;;;;5079623;28;20670;-79
2021/06/23 09:18:15;;;;;;;2.70;2.50;;;21.60;99.90;;;;;;5080169;28;20250;-79
2021/06/23 09:20:41;;;;;;;3.27;2.60;;;21.70;99.90;;;;;;5080413;28;20288;-79
2021/06/23 09:23:07;;;;;;;2.73;2.53;;;22.00;99.90;;;;;;5079235;28;20173;-79
2021/06/23 09:25:35;;;;;;;3.33;2.57;;;22.20;99.90;;;;;;5079632;28;20173;-79
2021/06/23 09:28:03;;;;;;;3.10;2.80;;;22.60;99.90;;;;;;5078916;28;20216;-79
2021/06/23 09:30:36;;;;;;;4.63;3.23;;;22.80;99.90;;;;;;5080073;28;20174;-79
2021/06/23 09:33:25;;;;;;;3.83;2.70;;;22.80;99.90;;;;;;5080027;28;20169;-79
2021/06/23 09:36:07;;;;;;;4.37;2.40;;;23.00;99.90;;;;;;5078834;28;20166;-79
2021/06/23 09:38:50;;;;;;;3.03;2.73;;;23.10;99.90;;;;;;5078277;28;20207;-79
2021/06/23 09:41:36;;;;;;;7.03;3.63;;;23.10;99.90;;;;;;5079170;28;20193;-79
2021/06/23 09:44:12;;;;;;;3.50;3.20;;;23.20;99.90;;;;;;5078778;28;20169;-79
2021/06/23 09:46:45;;;;;;;3.70;3.30;;;23.40;99.90;;;;;;5079773;28;20635;-79
2021/06/23 09:49:12;;;;;;;4.47;3.60;;;23.50;99.90;;;;;;5080096;28;20154;-79
2021/06/23 09:51:46;;;;;;;3.00;2.70;;;23.90;99.90;;;;;;5079692;28;20584;-79
2021/06/23 09:54:12;;;;;;;2.90;2.63;;;23.90;99.90;;;;;;5080009;28;20157;-79
2021/06/23 09:56:44;;;;;;;3.13;2.83;;;23.80;99.90;;;;;;5079155;28;20655;-79
2021/06/23 09:59:18;;;;;;;3.27;2.97;;;24.00;99.90;;;;;;5078409;28;20167;-79
2021/06/23 10:01:44;;;;;;;5.07;3.03;;;24.20;99.90;;;;;;5078051;28;20180;-79
2021/06/23 10:04:09;;;;;;;3.63;3.33;;;24.40;99.90;;;;;;5080280;28;20183;-79
2021/06/23 10:06:43;;;;;;;4.00;3.60;;;24.30;99.90;;;;;;5079807;28;20185;-80
2021/06/23 10:09:24;;;;;;;3.73;3.40;;;24.10;99.90;;;;;;5079796;28;20198;-79
2021/06/23 10:11:54;;;;;;;3.83;3.37;;;23.70;99.90;;;;;;5079158;28;20231;-79
2021/06/23 10:14:22;;;;;;;3.77;3.40;;;23.20;99.90;;;;;;5077924;28;20185;-79
2021/06/23 10:16:52;;;;;;;3.77;3.00;;;23.00;99.90;;;;;;5077736;28;20671;-79
2021/06/23 10:19:18;;;;;;;3.40;3.10;;;22.80;99.90;;;;;;5077897;28;20217;-80
2021/06/23 10:21:45;;;;;;;5.00;3.30;;;22.80;99.90;;;;;;5079003;28;20202;-79
2021/06/23 10:24:12;;;;;;;3.33;3.03;;;22.60;99.90;;;;;;5078072;28;20205;-80
2021/06/23 10:26:50;;;;;;;4.33;3.20;;;22.40;99.90;;;;;;5079661;28;20252;-80
2021/06/23 10:29:21;;;;;;;5.53;3.60;;;22.20;99.90;;;;;;5074560;28;20635;-80
2021/06/23 10:31:47;;;;;;;4.63;2.83;;;22.80;99.90;;;;;;5059146;28;20161;-79
2021/06/23 10:34:16;;;;;;;3.53;3.23;;;23.60;99.90;;;;;;5057646;28;20181;-79
2021/06/23 10:36:43;;;;;;;3.30;3.07;;;23.90;99.90;;;;;;5056236;28;20186;-79
2021/06/23 10:39:09;;;;;;;4.60;3.13;;;24.00;99.90;;;;;;5059521;28;20578;-80
2021/06/23 10:41:50;;;;;;;3.00;2.70;;;23.80;99.90;;;;;;5058491;28;20534;-79
2021/06/23 10:44:24;;;;;;;7.17;3.30;;;23.70;99.90;;;;;;5058234;28;20169;-79
2021/06/23 10:46:55;;;;;;;3.33;3.03;;;23.50;99.90;;;;;;5058844;28;20177;-79
2021/06/23 10:49:38;;;;;;;6.40;3.33;;;23.40;99.90;;;;;;5058866;28;20158;-80
2021/06/23 10:52:22;;;;;;;3.20;2.90;;;23.90;99.90;;;;;;5059007;28;20185;-79
2021/06/23 10:54:49;;;;;;;4.87;2.73;;;24.70;99.90;;;;;;5056811;28;20181;-79
2021/06/23 10:57:44;;;;;;;2.57;2.37;;;25.50;99.90;;;;;;5057089;28;20212;-79
2021/06/23 11:00:10;;;;;;;3.93;2.40;;;25.90;99.90;;;;;;5055983;28;20304;-80
2021/06/23 11:02:39;;;;;;;5.43;2.43;;;25.90;99.90;;;;;;5057902;28;20205;-79
2021/06/23 11:05:07;;;;;;;2.53;2.33;;;26.40;99.90;;;;;;5055992;28;20243;-79
2021/06/23 11:07:35;;;;;;;3.97;2.97;;;26.90;99.90;;;;;;5057755;28;20226;-79
2021/06/23 11:10:13;;;;;;;3.70;3.10;;;26.60;99.90;;;;;;5058663;28;20664;-79
2021/06/23 11:12:54;;;;;;;4.77;2.60;;;26.20;99.90;;;;;;5058572;28;20188;-79
2021/06/23 11:15:31;;;;;;;6.13;2.80;;;26.50;99.90;;;;;;5058083;28;20180;-79
2021/06/23 11:18:15;;;;;;;2.70;2.50;;;26.80;99.90;;;;;;5056706;28;20659;-79
2021/06/23 11:20:42;;;;;;;2.40;1.93;;;26.90;99.90;;;;;;5056863;28;20206;-79
2021/06/23 11:23:46;;;;;;;3.53;2.30;;;26.80;99.90;;;;;;5058522;28;20544;-80
2021/06/23 11:26:18;;;;;;;4.60;2.63;;;26.20;99.90;;;;;;5057042;28;20218;-79
2021/06/23 11:28:45;;;;;;;4.50;3.10;;;25.40;99.90;;;;;;5057555;28;20272;-79
2021/06/23 11:31:11;;;;;;;4.00;2.43;;;25.00;99.90;;;;;;5056497;28;20252;-79
2021/06/23 11:33:39;;;;;;;2.80;2.60;;;25.70;99.90;;;;;;5058286;28;20208;-80
2021/06/23 11:36:08;;;;;;;3.20;2.53;;;26.80;99.90;;;;;;5058043;28;20234;-79
2021/06/23 11:38:34;;;;;;;2.33;2.20;;;27.80;99.90;;;;;;5057950;28;20284;-80
2021/06/23 11:41:01;;;;;;;2.37;1.97;;;28.70;99.90;;;;;;5058144;28;20202;-79
2021/06/23 11:43:27;;;;;;;3.47;1.93;;;29.20;99.90;;;;;;5056883;28;20635;-80
2021/06/23 11:45:53;;;;;;;2.90;1.87;;;28.60;99.90;;;;;;5058047;28;20236;-79
2021/06/23 11:48:20;;;;;;;4.07;2.20;;;28.50;99.90;;;;;;5056720;28;20205;-79
2021/06/23 11:50:46;;;;;;;3.17;1.90;;;28.10;99.90;;;;;;5056318;28;20178;-80
2021/06/23 11:53:14;;;;;;;4.27;1.90;;;27.10;99.90;;;;;;5056557;28;20181;-77
2021/06/23 11:55:41;;;;;;;2.13;1.93;;;27.10;99.90;;;;;;5053779;28;20205;-77
2021/06/23 11:58:07;;;;;;;2.37;1.60;;;27.40;99.90;;;;;;5053320;28;20200;-77
2021/06/23 12:00:37;;;;;;;3.20;1.97;;;26.70;99.90;;;;;;5053243;28;20627;-77
2021/06/23 12:03:05;;;;;;;3.03;2.40;;;26.20;99.90;;;;;;5053505;28;20173;-77
2021/06/23 12:05:31;;;;;;;2.97;2.30;;;26.50;99.90;;;;;;5053007;28;20188;-77
2021/06/23 12:07:57;;;;;;;8.53;2.40;;;27.90;99.90;;;;;;5053436;28;20196;-77
2021/06/23 12:10:25;;;;;;;8.63;2.63;;;29.20;99.90;;;;;;5053602;28;20189;-77
2021/06/23 12:12:51;;;;;;;8.47;2.50;;;30.20;99.90;;;;;;5053437;28;20173;-77
2021/06/23 12:15:22;;;;;;;4.50;2.17;;;31.10;99.90;;;;;;5053556;28;20539;-77
2021/06/23 12:17:52;;;;;;;2.77;2.10;;;30.50;99.90;;;;;;5054659;28;20550;-84
2021/06/23 12:20:20;;;;;;;8.37;2.07;;;29.40;99.90;;;;;;5056491;28;20266;-84
2021/06/23 12:22:53;;;;;;;9.03;2.10;;;28.40;99.90;;;;;;5059134;28;20201;-84
2021/06/23 12:25:18;;;;;;;3.90;1.90;;;29.10;99.90;;;;;;5057918;28;20177;-85
2021/06/23 12:27:44;;;;;;;6.63;2.20;;;29.70;99.90;;;;;;5057028;28;20679;-86
2021/06/23 12:30:10;;;;;;;6.90;1.97;;;29.80;99.90;;;;;;5058915;28;20182;-84
2021/06/23 12:32:36;;;;;;;6.73;2.33;;;29.20;99.90;;;;;;5058988;28;20193;-85
2021/06/23 12:35:05;;;;;;;5.13;2.20;;;28.70;99.90;;;;;;5057834;28;20182;-83
2021/06/23 12:37:31;;;;;;;2.93;1.90;;;27.80;99.90;;;;;;5057508;28;20213;-84
2021/06/23 12:39:56;;;;;;;5.40;2.33;;;27.00;99.90;;;;;;5056626;28;20235;-84
2021/06/23 12:42:22;;;;;;;2.63;2.17;;;26.30;99.90;;;;;;5057257;28;20189;-85
2021/06/23 12:44:48;;;;;;;2.83;2.60;;;25.90;99.90;;;;;;5056513;28;20195;-84
2021/06/23 12:47:13;;;;;;;2.60;1.83;;;27.10;99.90;;;;;;5058835;28;20251;-85
2021/06/23 12:49:39;;;;;;;5.50;2.30;;;28.30;99.90;;;;;;5060353;28;20229;-84
2021/06/23 12:52:05;;;;;;;3.50;2.10;;;29.50;99.90;;;;;;5059790;28;20181;-85
2021/06/23 12:54:31;;;;;;;7.90;2.40;;;30.30;99.90;;;;;;5060368;28;20312;-85
2021/06/23 12:56:57;;;;;;;5.90;1.90;;;29.90;99.90;;;;;;5060751;28;20181;-85
2021/06/23 12:59:24;;;;;;;6.23;2.03;;;29.10;99.90;;;;;;5059203;28;20184;-84
2021/06/23 13:01:50;;;;;;;2.23;2.10;;;28.50;99.90;;;;;;5063113;28;20166;-84
2021/06/23 13:04:16;;;;;;;3.40;1.83;;;27.80;99.90;;;;;;5061263;28;20216;-84
2021/06/23 13:06:42;;;;;;;3.27;1.80;;;27.50;99.90;;;;;;5062018;28;20185;-85
2021/06/23 13:09:07;;;;;;;2.27;2.07;;;27.90;99.90;;;;;;5063825;28;20187;-84